OOCL St Petersburg — PHCZ — position and weather

sailwx.info

Track history (hours):
 
Tides and Currents Weather Stations Pressure Air Temp Water Temp Dewpoint Dewpoint Depression Visibility Wind Speed Wind Dir Waves Ship Positions

OOCL St Petersburg

Last reported at 2018-Feb-25 11:29 UTC. Time now 2018-Feb-25 11:40 UTC.
Position N 41°10' W 008°47'.

MMSI: 229583784.

Date/timePositionNaut miles runAvg speedWind from/ knotsBaromVisibWave heightAir tempDewpointWater temp
2018-Feb-25 11:29N 41°10' W 008°47'0 0.2
2018-Feb-25 11:00N 41°10' W 008°47'5 9.3
2018-Feb-25 10:30N 41°05' W 008°46'9214.9
2018-Feb-25 04:20N 39°43' W 009°40'615.2
2018-Feb-25 03:55N 39°37' W 009°42'615.2
2018-Feb-25 03:30N 39°31' W 009°43'815.1
2018-Feb-25 03:00N 39°23' W 009°45'714.9
2018-Feb-25 02:30N 39°16' W 009°46'714.8
2018-Feb-25 02:00N 39°08' W 009°47'714.8
2018-Feb-25 01:31N 39°01' W 009°49'814.9
2018-Feb-25 01:00N 38°54' W 009°50'814.9
2018-Feb-25 00:30N 38°46' W 009°50'715.0
2018-Feb-25 00:00N 38°39' W 009°49'714.7
2018-Feb-24 23:30N 38°34' W 009°42'815.0
2018-Feb-24 23:00N 38°30' W 009°33'714.9
2018-Feb-24 22:30N 38°26' W 009°25'714.9
2018-Feb-24 22:01N 38°22' W 009°17'713.7
2018-Feb-24 21:30N 38°23' W 009°08'714.7
2018-Feb-24 21:01N 38°26' W 009°00'611.1
2018-Feb-24 20:30N 38°30' W 008°55'2 4.6
2018-Feb-24 19:59N 38°31' W 008°52'0 0.0
2018-Feb-24 19:29N 38°31' W 008°52'0 0.0
2018-Feb-24 18:59N 38°31' W 008°52'0 0.0
2018-Feb-24 18:29N 38°31' W 008°52'0 0.0
2018-Feb-24 17:59N 38°31' W 008°52'0 0.0
2018-Feb-24 17:29N 38°31' W 008°52'0 0.0
2018-Feb-24 16:59N 38°31' W 008°52'0 0.0
2018-Feb-24 16:26N 38°31' W 008°52'0 0.0
2018-Feb-24 15:59N 38°31' W 008°52'0 0.0
2018-Feb-24 15:29N 38°31' W 008°52'0 0.0
2018-Feb-24 14:59N 38°31' W 008°52'0 0.0
2018-Feb-24 14:26N 38°31' W 008°52'0 0.0
2018-Feb-24 13:59N 38°31' W 008°52'0 0.0
2018-Feb-24 13:29N 38°31' W 008°52'0 0.0
2018-Feb-24 12:59N 38°31' W 008°52'0 0.0
2018-Feb-24 12:26N 38°31' W 008°52'0 0.0
2018-Feb-24 11:59N 38°31' W 008°52'0 0.0
2018-Feb-24 11:29N 38°31' W 008°52'0 0.0
2018-Feb-24 10:56N 38°31' W 008°52'0 0.0
2018-Feb-24 10:29N 38°31' W 008°52'0 0.0
2018-Feb-24 09:56N 38°31' W 008°52'0 0.0
2018-Feb-24 09:20N 38°31' W 008°52'0 0.0
2018-Feb-24 08:59N 38°31' W 008°52'0 0.0
2018-Feb-24 08:26N 38°31' W 008°52'0 0.0
2018-Feb-24 07:59N 38°31' W 008°52'0 0.0
2018-Feb-24 07:26N 38°31' W 008°52'0 0.0
2018-Feb-24 06:59N 38°31' W 008°52'0 0.0
2018-Feb-24 06:29N 38°31' W 008°52'0 0.0
2018-Feb-24 05:59N 38°31' W 008°52'1 1.9
2018-Feb-24 05:30N 38°31' W 008°54'612.1
2018-Feb-24 05:00N 38°27' W 008°59'611.8
2018-Feb-24 04:30N 38°24' W 009°06'611.5
2018-Feb-24 04:01N 38°21' W 009°12'510.7
2018-Feb-24 03:30N 38°24' W 009°18'612.2
2018-Feb-24 03:00N 38°30' W 009°20'714.7
2018-Feb-24 02:30N 38°37' W 009°22'714.2
2018-Feb-24 01:59N 38°41' W 009°14'511.0
2018-Feb-24 01:31N 38°42' W 009°08'1 2.9
2018-Feb-24 01:00N 38°43' W 009°06'0 0.0
2018-Feb-24 00:24N 38°43' W 009°07'0 0.0
2018-Feb-23 23:57N 38°43' W 009°07'0 0.0
2018-Feb-23 23:30N 38°43' W 009°06'0 0.0
2018-Feb-23 22:57N 38°43' W 009°06'0 0.0
2018-Feb-23 22:27N 38°43' W 009°06'0 0.0
2018-Feb-23 22:00N 38°43' W 009°07'0 0.0
2018-Feb-23 21:30N 38°43' W 009°06'0 0.0
2018-Feb-23 21:00N 38°43' W 009°07'0 0.0
2018-Feb-23 20:30N 38°43' W 009°07'0 0.0
2018-Feb-23 20:00N 38°43' W 009°06'0 0.0
2018-Feb-23 19:30N 38°43' W 009°06'0 0.0
2018-Feb-23 19:00N 38°43' W 009°07'0 0.0
2018-Feb-23 18:30N 38°43' W 009°06'0 0.0
2018-Feb-23 18:00N 38°43' W 009°07'0 0.0
2018-Feb-23 17:30N 38°43' W 009°06'0 0.0
2018-Feb-23 17:00N 38°43' W 009°07'0 0.0
2018-Feb-23 16:30N 38°43' W 009°06'0 0.0
2018-Feb-23 16:00N 38°43' W 009°07'0 0.0
2018-Feb-23 15:30N 38°43' W 009°07'0 0.0
2018-Feb-23 15:00N 38°43' W 009°07'0 0.0
2018-Feb-23 14:24N 38°43' W 009°07'0 0.0
2018-Feb-23 14:00N 38°43' W 009°07'0 0.2
2018-Feb-23 13:30N 38°43' W 009°07'4 8.4
2018-Feb-23 13:00N 38°41' W 009°11'5 9.8
2018-Feb-23 12:30N 38°41' W 009°17'714.7
2018-Feb-23 12:00N 38°36' W 009°25'816.3
2018-Feb-23 11:29N 38°36' W 009°36'816.5
2018-Feb-23 11:00N 38°36' W 009°46'816.3
2018-Feb-23 10:30N 38°35' W 009°56'713.2
2018-Feb-23 10:00N 38°37' W 010°04'816.3
2018-Feb-23 09:30N 38°46' W 010°06'816.9
2018-Feb-23 09:00N 38°54' W 010°05'817.0
2018-Feb-23 08:30N 39°02' W 010°01'816.8
2018-Feb-23 08:00N 39°10' W 009°57'816.7
2018-Feb-23 07:30N 39°17' W 009°53'816.6
2018-Feb-23 07:00N 39°25' W 009°49'916.8
2018-Feb-23 06:30N 39°33' W 009°44'9016.9
2018-Feb-23 01:09N 40°54' W 008°53'316.9
2018-Feb-23 01:00N 40°56' W 008°52'816.9
2018-Feb-23 00:31N 41°04' W 008°46'714.3
2018-Feb-23 00:01N 41°10' W 008°42'2 3.3
2018-Feb-22 23:30N 41°12' W 008°41'0 0.0
2018-Feb-22 23:00N 41°12' W 008°41'0 0.0
2018-Feb-22 22:30N 41°12' W 008°41'0 0.0
2018-Feb-22 22:00N 41°12' W 008°41'0 0.0
2018-Feb-22 21:30N 41°12' W 008°41'0 0.0
2018-Feb-22 21:00N 41°12' W 008°41'0 0.0
2018-Feb-22 20:30N 41°12' W 008°41'0 0.0
2018-Feb-22 19:59N 41°12' W 008°41'0 0.0
2018-Feb-22 19:29N 41°12' W 008°41'0 0.0
2018-Feb-22 18:59N 41°12' W 008°41'0 0.0
2018-Feb-22 18:29N 41°12' W 008°41'0 0.0
2018-Feb-22 17:59N 41°12' W 008°41'0 0.0
2018-Feb-22 17:29N 41°12' W 008°41'0 0.0
2018-Feb-22 16:59N 41°12' W 008°41'0 0.0
2018-Feb-22 16:29N 41°12' W 008°41'0 0.0
2018-Feb-22 15:56N 41°12' W 008°41'0 0.0
2018-Feb-22 15:29N 41°12' W 008°41'0 0.0
2018-Feb-22 14:56N 41°12' W 008°41'0 0.0
2018-Feb-22 14:29N 41°12' W 008°41'0 0.0
2018-Feb-22 13:41N 41°12' W 008°41'0 0.2
2018-Feb-22 13:15N 41°12' W 008°41'0 1.0
2018-Feb-22 13:01N 41°11' W 008°41'3 5.3
2018-Feb-22 12:30N 41°09' W 008°43'3 5.9
2018-Feb-22 11:59N 41°08' W 008°47'0 0.3
2018-Feb-22 11:29N 41°08' W 008°47'0 0.1
2018-Feb-22 10:59N 41°08' W 008°47'0 0.0
2018-Feb-22 10:29N 41°08' W 008°47'0 0.0
2018-Feb-22 09:59N 41°08' W 008°47'0 0.0
2018-Feb-22 09:29N 41°08' W 008°47'0 0.1
2018-Feb-22 08:59N 41°08' W 008°47'0 0.0
2018-Feb-22 08:29N 41°08' W 008°47'0 0.1
2018-Feb-22 07:59N 41°08' W 008°47'0 0.0
2018-Feb-22 07:29N 41°08' W 008°47'0 0.0
2018-Feb-22 06:59N 41°08' W 008°47'0 0.1
2018-Feb-22 06:29N 41°08' W 008°47'0 0.0
2018-Feb-22 05:59N 41°08' W 008°47'0 0.1
2018-Feb-22 05:29N 41°08' W 008°47'0 0.1
2018-Feb-22 04:59N 41°08' W 008°47'0 0.0
2018-Feb-22 04:29N 41°08' W 008°47'0 0.0
2018-Feb-22 03:59N 41°08' W 008°47'0 0.0
2018-Feb-22 03:29N 41°08' W 008°47'0 0.1
2018-Feb-22 02:58N 41°08' W 008°47'0 0.1
2018-Feb-22 02:28N 41°08' W 008°47'0 0.0
2018-Feb-22 01:58N 41°08' W 008°47'0 0.0
2018-Feb-22 01:28N 41°08' W 008°47'0 0.1
2018-Feb-22 00:58N 41°08' W 008°47'0 0.2
2018-Feb-22 00:28N 41°08' W 008°47'0 0.0
2018-Feb-21 23:58N 41°08' W 008°47'0 0.1
2018-Feb-21 23:28N 41°08' W 008°47'0 0.0
2018-Feb-21 22:58N 41°08' W 008°47'0 0.7
2018-Feb-21 22:31N 41°08' W 008°46'510.9
2018-Feb-21 22:01N 41°13' W 008°49'417 8.4
2018-Feb-19 20:33N 47°57' W 006°29'117.3
2018-Feb-19 20:30N 47°58' W 006°28'1316.7
2018-Feb-19 19:44N 48°10' W 006°19'616.2
2018-Feb-19 19:22N 48°15' W 006°15'615.8
2018-Feb-19 19:00N 48°20' W 006°11'1015.3
2018-Feb-19 18:21N 48°29' W 006°05'2314.7
2018-Feb-19 16:48N 48°49' W 005°49'1714.4
2018-Feb-19 15:38N 49°01' W 005°30'1015.2
2018-Feb-19 14:57N 49°06' W 005°16'815.9
2018-Feb-19 14:25N 49°10' W 005°05'716.6
2018-Feb-19 13:59N 49°14' W 004°55'2217.2
2018-Feb-19 12:44N 49°24' W 004°26'3716.5
2018-Feb-19 10:30N 49°42' W 003°37'815.0
2018-Feb-19 09:59N 49°46' W 003°26'714.5
2018-Feb-19 09:31N 49°49' W 003°17'814.2
2018-Feb-19 08:57N 49°53' W 003°06'614.0
2018-Feb-19 08:30N 49°56' W 002°58'713.9
2018-Feb-19 07:59N 49°58' W 002°47'714.4
2018-Feb-19 07:29N 50°01' W 002°37'1915.8
2018-Feb-19 06:18N 50°07' W 002°09'517.5
2018-Feb-19 06:00N 50°08' W 002°01'918.3
2018-Feb-19 05:30N 50°11' W 001°48'1019.0
2018-Feb-19 05:00N 50°14' W 001°34'1019.4
2018-Feb-19 04:30N 50°17' W 001°19'3419.2
2018-Feb-19 02:43N 50°26' W 000°27'418.0
2018-Feb-19 02:30N 50°27' W 000°21'917.3
2018-Feb-19 02:00N 50°30' W 000°08'816.7
2018-Feb-19 01:30N 50°32' E 000°04'816.1
2018-Feb-19 01:00N 50°34' E 000°17'815.5
2018-Feb-19 00:30N 50°37' E 000°28'715.0
2018-Feb-19 00:00N 50°40' E 000°39'714.9
2018-Feb-18 23:30N 50°44' E 000°48'815.3
2018-Feb-18 23:01N 50°49' E 000°58'816.3
2018-Feb-18 22:30N 50°54' E 001°08'817.2
2018-Feb-18 22:00N 50°60' E 001°18'1019.3
2018-Feb-18 21:30N 51°06' E 001°30'1019.6
2018-Feb-18 21:00N 51°12' E 001°42'918.6
2018-Feb-18 20:31N 51°19' E 001°51'917.6
2018-Feb-18 20:00N 51°27' E 001°59'816.8
2018-Feb-18 19:31N 51°33' E 002°08'816.4
2018-Feb-18 19:00N 51°39' E 002°17'815.9
2018-Feb-18 18:29N 51°45' E 002°26'3414.5
2018-Feb-18 16:11N 52°03' E 003°12'315.4
2018-Feb-18 16:00N 52°03' E 003°16'815.3
2018-Feb-18 15:30N 52°04' E 003°29'815.1
2018-Feb-18 15:00N 52°04' E 003°41'714.6
2018-Feb-18 14:31N 52°03' E 003°53'611.5
2018-Feb-18 14:00N 52°00' E 004°01'3 5.5
2018-Feb-18 13:30N 51°58' E 004°03'1 1.4
2018-Feb-18 12:58N 51°58' E 004°02'0 0.0
2018-Feb-18 12:28N 51°58' E 004°02'0 0.0
2018-Feb-18 11:58N 51°58' E 004°02'0 0.0
2018-Feb-18 11:28N 51°58' E 004°02'0 0.0
2018-Feb-18 10:58N 51°58' E 004°02'0 0.0
2018-Feb-18 10:28N 51°58' E 004°02'0 0.0
2018-Feb-18 09:58N 51°58' E 004°02'0 0.0
2018-Feb-18 09:30N 51°58' E 004°02'2 3.6
2018-Feb-18 09:00N 51°57' E 004°05'1 2.3
2018-Feb-18 08:30N 51°57' E 004°03'0 0.0
2018-Feb-18 07:58N 51°57' E 004°03'0 0.0
2018-Feb-18 07:28N 51°57' E 004°03'0 0.0
2018-Feb-18 06:58N 51°57' E 004°03'0 0.0
2018-Feb-18 06:28N 51°57' E 004°03'0 0.0
2018-Feb-18 05:58N 51°57' E 004°03'0 0.0
2018-Feb-18 05:28N 51°57' E 004°03'0 0.0
2018-Feb-18 04:58N 51°57' E 004°03'0 0.0
2018-Feb-18 04:28N 51°57' E 004°03'0 0.0
2018-Feb-18 03:58N 51°57' E 004°03'0 0.0
2018-Feb-18 03:28N 51°57' E 004°03'0 0.0
2018-Feb-18 03:00N 51°57' E 004°03'1 2.2
2018-Feb-18 02:30N 51°58' E 004°04'3 5.4
2018-Feb-18 02:00N 51°57' E 003°60'0 0.8
2018-Feb-18 01:30N 51°57' E 003°59'0 0.0
2018-Feb-18 01:00N 51°57' E 003°59'0 0.0
2018-Feb-18 00:30N 51°57' E 003°59'0 0.0
2018-Feb-18 00:00N 51°57' E 003°59'0 0.0
2018-Feb-17 23:30N 51°57' E 003°59'0 0.5
2018-Feb-17 23:01N 51°57' E 003°60'2 4.1
2018-Feb-17 22:30N 51°58' E 004°02'3 5.1
2018-Feb-17 22:00N 51°59' E 004°06'612.7
2018-Feb-17 21:30N 51°55' E 004°14'510.4
2018-Feb-17 21:00N 51°54' E 004°23'2 4.1
2018-Feb-17 20:31N 51°54' E 004°26'0 0.0
2018-Feb-17 20:00N 51°54' E 004°26'0 0.0
2018-Feb-17 19:27N 51°54' E 004°26'0 0.0
2018-Feb-17 18:59N 51°54' E 004°26'0 0.1
2018-Feb-17 18:29N 51°54' E 004°26'0 0.0
2018-Feb-17 17:59N 51°54' E 004°26'0 0.0
2018-Feb-17 17:30N 51°54' E 004°26'0 0.0
2018-Feb-17 16:59N 51°54' E 004°26'0 0.0
2018-Feb-17 16:30N 51°54' E 004°26'0 0.0
2018-Feb-17 16:00N 51°54' E 004°26'0 0.0
2018-Feb-17 15:27N 51°54' E 004°26'0 0.0
2018-Feb-17 15:00N 51°54' E 004°26'0 0.0
2018-Feb-17 14:29N 51°54' E 004°26'0 0.0
2018-Feb-17 13:59N 51°54' E 004°26'0 0.0
2018-Feb-17 13:27N 51°54' E 004°26'0 0.0
2018-Feb-17 13:00N 51°54' E 004°26'0 0.0
2018-Feb-17 12:30N 51°54' E 004°26'0 0.0
2018-Feb-17 11:59N 51°54' E 004°26'0 0.0
2018-Feb-17 11:26N 51°54' E 004°26'0 0.4
2018-Feb-17 10:59N 51°54' E 004°26'0 0.3
2018-Feb-17 10:28N 51°53' E 004°26'0 0.0
2018-Feb-17 09:59N 51°53' E 004°26'0 0.0
2018-Feb-17 09:29N 51°53' E 004°26'0 0.0
2018-Feb-17 08:58N 51°53' E 004°26'0 0.0
2018-Feb-17 08:30N 51°53' E 004°26'0 0.7
2018-Feb-17 08:00N 51°54' E 004°26'4 7.6
2018-Feb-17 07:30N 51°54' E 004°20'510.1
2018-Feb-17 07:00N 51°56' E 004°13'510.8
2018-Feb-17 06:30N 51°59' E 004°05'2 2.9
2018-Feb-17 06:00N 51°58' E 004°04'0 0.0
2018-Feb-17 05:30N 51°58' E 004°04'0 0.0
2018-Feb-17 05:00N 51°58' E 004°04'0 0.0
2018-Feb-17 04:30N 51°58' E 004°04'0 0.0
2018-Feb-17 04:00N 51°58' E 004°04'0 0.0
2018-Feb-17 03:30N 51°58' E 004°04'0 0.0
2018-Feb-17 02:59N 51°58' E 004°04'0 0.0
2018-Feb-17 02:29N 51°58' E 004°04'0 0.0
2018-Feb-17 01:59N 51°58' E 004°04'0 0.0
2018-Feb-17 01:30N 51°58' E 004°04'1 1.7
2018-Feb-17 01:00N 51°57' E 004°05'0 0.5
2018-Feb-17 00:29N 51°57' E 004°05'0 0.0
2018-Feb-16 23:59N 51°57' E 004°05'0 0.0
2018-Feb-16 23:29N 51°57' E 004°05'0 0.0
2018-Feb-16 22:59N 51°57' E 004°04'0 0.0
2018-Feb-16 22:29N 51°57' E 004°05'0 0.1
2018-Feb-16 21:59N 51°57' E 004°04'0 0.0
2018-Feb-16 21:29N 51°57' E 004°05'0 0.0
2018-Feb-16 20:59N 51°57' E 004°05'0 0.0
2018-Feb-16 20:29N 51°57' E 004°04'0 0.0
2018-Feb-16 19:56N 51°57' E 004°05'0 0.0
2018-Feb-16 19:29N 51°57' E 004°04'0 0.0
2018-Feb-16 18:59N 51°57' E 004°04'0 0.0
2018-Feb-16 18:29N 51°57' E 004°05'0 0.0
2018-Feb-16 17:59N 51°57' E 004°05'0 0.0
2018-Feb-16 17:29N 51°57' E 004°05'0 0.0
2018-Feb-16 16:59N 51°57' E 004°05'0 0.0
2018-Feb-16 16:30N 51°57' E 004°04'0 0.0
2018-Feb-16 15:59N 51°57' E 004°05'0 0.0
2018-Feb-16 15:30N 51°57' E 004°05'0 0.0
2018-Feb-16 14:57N 51°57' E 004°05'0 0.0
2018-Feb-16 14:30N 51°57' E 004°05'0 0.0
2018-Feb-16 14:00N 51°57' E 004°05'2 3.3
2018-Feb-16 13:31N 51°58' E 004°05'5 9.3
2018-Feb-16 13:00N 51°56' E 004°12'510.6
2018-Feb-16 12:30N 51°54' E 004°19'3 6.9
2018-Feb-16 12:00N 51°53' E 004°25'0 0.4
2018-Feb-16 11:27N 51°53' E 004°25'0 0.0
2018-Feb-16 11:00N 51°53' E 004°25'0 0.0
2018-Feb-16 10:30N 51°53' E 004°25'0 0.0
2018-Feb-16 10:00N 51°53' E 004°25'0 0.0
2018-Feb-16 09:30N 51°53' E 004°25'0 0.0
2018-Feb-16 08:57N 51°53' E 004°25'0 0.0
2018-Feb-16 08:27N 51°53' E 004°25'0 0.0
2018-Feb-16 07:59N 51°53' E 004°25'0 0.0
2018-Feb-16 07:30N 51°53' E 004°25'0 0.0
2018-Feb-16 07:00N 51°53' E 004°25'0 0.0
2018-Feb-16 06:29N 51°53' E 004°25'0 0.0
2018-Feb-16 06:00N 51°53' E 004°25'0 0.0
2018-Feb-16 05:30N 51°53' E 004°25'0 0.0
2018-Feb-16 04:59N 51°53' E 004°25'0 0.0
2018-Feb-16 04:30N 51°53' E 004°25'0 0.0
2018-Feb-16 04:00N 51°53' E 004°25'0 0.0
2018-Feb-16 03:30N 51°53' E 004°25'0 0.0
2018-Feb-16 03:00N 51°53' E 004°25'0 0.0
2018-Feb-16 02:30N 51°53' E 004°25'0 0.0
2018-Feb-16 02:00N 51°53' E 004°25'0 0.0
2018-Feb-16 01:29N 51°53' E 004°25'0 0.0
2018-Feb-16 00:57N 51°53' E 004°25'0 0.0
2018-Feb-16 00:29N 51°53' E 004°25'0 0.0
2018-Feb-16 00:00N 51°53' E 004°25'0 0.0
2018-Feb-15 23:29N 51°53' E 004°25'0 0.0
2018-Feb-15 22:59N 51°53' E 004°25'0 0.0
2018-Feb-15 22:30N 51°53' E 004°25'2 3.3
2018-Feb-15 22:00N 51°54' E 004°23'3 5.4
2018-Feb-15 21:30N 51°52' E 004°20'4 7.8
2018-Feb-15 21:00N 51°50' E 004°26'4 9.0
2018-Feb-15 20:30N 51°50' E 004°33'4 8.2
2018-Feb-15 20:01N 51°47' E 004°38'4 8.8
2018-Feb-15 19:31N 51°42' E 004°37'1 2.6
2018-Feb-15 19:00N 51°41' E 004°36'0 0.0
2018-Feb-15 18:24N 51°41' E 004°36'0 0.0
2018-Feb-15 18:00N 51°41' E 004°36'0 0.0
2018-Feb-15 17:30N 51°41' E 004°36'0 0.0
2018-Feb-15 17:00N 51°41' E 004°36'0 0.0
2018-Feb-15 16:27N 51°41' E 004°36'0 0.0
2018-Feb-15 15:54N 51°41' E 004°36'0 0.0
2018-Feb-15 15:30N 51°41' E 004°36'0 0.0
2018-Feb-15 15:00N 51°41' E 004°36'0 0.0
2018-Feb-15 14:30N 51°41' E 004°36'0 0.0
2018-Feb-15 13:57N 51°41' E 004°36'0 0.0
2018-Feb-15 13:30N 51°41' E 004°36'0 0.0
2018-Feb-15 13:00N 51°41' E 004°36'0 0.7
2018-Feb-15 12:30N 51°41' E 004°36'1 2.7
2018-Feb-15 12:00N 51°42' E 004°37'4 7.9
2018-Feb-15 11:30N 51°46' E 004°38'  
Track history (hours):
 
Tides and Currents Weather Stations Pressure Air Temp Water Temp Dewpoint Dewpoint Depression Visibility Wind Speed Wind Dir Waves Ship Positions

OOCL St Petersburg

Last reported at 2018-Feb-25 11:29 UTC. Time now 2018-Feb-25 11:40 UTC.
Position N 41°10' W 008°47'.

MMSI: 229583784.

Date/timePositionNaut miles runAvg speedWind from/ knotsBaromVisibWave heightAir tempDewpointWater temp
2018-Feb-25 11:29N 41°10' W 008°47'0 0.2
2018-Feb-25 11:00N 41°10' W 008°47'5 9.3
2018-Feb-25 10:30N 41°05' W 008°46'9214.9
2018-Feb-25 04:20N 39°43' W 009°40'615.2
2018-Feb-25 03:55N 39°37' W 009°42'615.2
2018-Feb-25 03:30N 39°31' W 009°43'815.1
2018-Feb-25 03:00N 39°23' W 009°45'714.9
2018-Feb-25 02:30N 39°16' W 009°46'714.8
2018-Feb-25 02:00N 39°08' W 009°47'714.8
2018-Feb-25 01:31N 39°01' W 009°49'814.9
2018-Feb-25 01:00N 38°54' W 009°50'814.9
2018-Feb-25 00:30N 38°46' W 009°50'715.0
2018-Feb-25 00:00N 38°39' W 009°49'714.7
2018-Feb-24 23:30N 38°34' W 009°42'815.0
2018-Feb-24 23:00N 38°30' W 009°33'714.9
2018-Feb-24 22:30N 38°26' W 009°25'714.9
2018-Feb-24 22:01N 38°22' W 009°17'713.7
2018-Feb-24 21:30N 38°23' W 009°08'714.7
2018-Feb-24 21:01N 38°26' W 009°00'611.1
2018-Feb-24 20:30N 38°30' W 008°55'2 4.6
2018-Feb-24 19:59N 38°31' W 008°52'0 0.0
2018-Feb-24 19:29N 38°31' W 008°52'0 0.0
2018-Feb-24 18:59N 38°31' W 008°52'0 0.0
2018-Feb-24 18:29N 38°31' W 008°52'0 0.0
2018-Feb-24 17:59N 38°31' W 008°52'0 0.0
2018-Feb-24 17:29N 38°31' W 008°52'0 0.0
2018-Feb-24 16:59N 38°31' W 008°52'0 0.0
2018-Feb-24 16:26N 38°31' W 008°52'0 0.0
2018-Feb-24 15:59N 38°31' W 008°52'0 0.0
2018-Feb-24 15:29N 38°31' W 008°52'0 0.0
2018-Feb-24 14:59N 38°31' W 008°52'0 0.0
2018-Feb-24 14:26N 38°31' W 008°52'0 0.0
2018-Feb-24 13:59N 38°31' W 008°52'0 0.0
2018-Feb-24 13:29N 38°31' W 008°52'0 0.0
2018-Feb-24 12:59N 38°31' W 008°52'0 0.0
2018-Feb-24 12:26N 38°31' W 008°52'0 0.0
2018-Feb-24 11:59N 38°31' W 008°52'0 0.0
2018-Feb-24 11:29N 38°31' W 008°52'0 0.0
2018-Feb-24 10:56N 38°31' W 008°52'0 0.0
2018-Feb-24 10:29N 38°31' W 008°52'0 0.0
2018-Feb-24 09:56N 38°31' W 008°52'0 0.0
2018-Feb-24 09:20N 38°31' W 008°52'0 0.0
2018-Feb-24 08:59N 38°31' W 008°52'0 0.0
2018-Feb-24 08:26N 38°31' W 008°52'0 0.0
2018-Feb-24 07:59N 38°31' W 008°52'0 0.0
2018-Feb-24 07:26N 38°31' W 008°52'0 0.0
2018-Feb-24 06:59N 38°31' W 008°52'0 0.0
2018-Feb-24 06:29N 38°31' W 008°52'0 0.0
2018-Feb-24 05:59N 38°31' W 008°52'1 1.9
2018-Feb-24 05:30N 38°31' W 008°54'612.1
2018-Feb-24 05:00N 38°27' W 008°59'611.8
2018-Feb-24 04:30N 38°24' W 009°06'611.5
2018-Feb-24 04:01N 38°21' W 009°12'510.7
2018-Feb-24 03:30N 38°24' W 009°18'612.2
2018-Feb-24 03:00N 38°30' W 009°20'714.7
2018-Feb-24 02:30N 38°37' W 009°22'714.2
2018-Feb-24 01:59N 38°41' W 009°14'511.0
2018-Feb-24 01:31N 38°42' W 009°08'1 2.9
2018-Feb-24 01:00N 38°43' W 009°06'0 0.0
2018-Feb-24 00:24N 38°43' W 009°07'0 0.0
2018-Feb-23 23:57N 38°43' W 009°07'0 0.0
2018-Feb-23 23:30N 38°43' W 009°06'0 0.0
2018-Feb-23 22:57N 38°43' W 009°06'0 0.0
2018-Feb-23 22:27N 38°43' W 009°06'0 0.0
2018-Feb-23 22:00N 38°43' W 009°07'0 0.0
2018-Feb-23 21:30N 38°43' W 009°06'0 0.0
2018-Feb-23 21:00N 38°43' W 009°07'0 0.0
2018-Feb-23 20:30N 38°43' W 009°07'0 0.0
2018-Feb-23 20:00N 38°43' W 009°06'0 0.0
2018-Feb-23 19:30N 38°43' W 009°06'0 0.0
2018-Feb-23 19:00N 38°43' W 009°07'0 0.0
2018-Feb-23 18:30N 38°43' W 009°06'0 0.0
2018-Feb-23 18:00N 38°43' W 009°07'0 0.0
2018-Feb-23 17:30N 38°43' W 009°06'0 0.0
2018-Feb-23 17:00N 38°43' W 009°07'0 0.0
2018-Feb-23 16:30N 38°43' W 009°06'0 0.0
2018-Feb-23 16:00N 38°43' W 009°07'0 0.0
2018-Feb-23 15:30N 38°43' W 009°07'0 0.0
2018-Feb-23 15:00N 38°43' W 009°07'0 0.0
2018-Feb-23 14:24N 38°43' W 009°07'0 0.0
2018-Feb-23 14:00N 38°43' W 009°07'0 0.2
2018-Feb-23 13:30N 38°43' W 009°07'4 8.4
2018-Feb-23 13:00N 38°41' W 009°11'5 9.8
2018-Feb-23 12:30N 38°41' W 009°17'714.7
2018-Feb-23 12:00N 38°36' W 009°25'816.3
2018-Feb-23 11:29N 38°36' W 009°36'816.5
2018-Feb-23 11:00N 38°36' W 009°46'816.3
2018-Feb-23 10:30N 38°35' W 009°56'713.2
2018-Feb-23 10:00N 38°37' W 010°04'816.3
2018-Feb-23 09:30N 38°46' W 010°06'816.9
2018-Feb-23 09:00N 38°54' W 010°05'817.0
2018-Feb-23 08:30N 39°02' W 010°01'816.8
2018-Feb-23 08:00N 39°10' W 009°57'816.7
2018-Feb-23 07:30N 39°17' W 009°53'816.6
2018-Feb-23 07:00N 39°25' W 009°49'916.8
2018-Feb-23 06:30N 39°33' W 009°44'9016.9
2018-Feb-23 01:09N 40°54' W 008°53'316.9
2018-Feb-23 01:00N 40°56' W 008°52'816.9
2018-Feb-23 00:31N 41°04' W 008°46'714.3
2018-Feb-23 00:01N 41°10' W 008°42'2 3.3
2018-Feb-22 23:30N 41°12' W 008°41'0 0.0
2018-Feb-22 23:00N 41°12' W 008°41'0 0.0
2018-Feb-22 22:30N 41°12' W 008°41'0 0.0
2018-Feb-22 22:00N 41°12' W 008°41'0 0.0
2018-Feb-22 21:30N 41°12' W 008°41'0 0.0
2018-Feb-22 21:00N 41°12' W 008°41'0 0.0
2018-Feb-22 20:30N 41°12' W 008°41'0 0.0
2018-Feb-22 19:59N 41°12' W 008°41'0 0.0
2018-Feb-22 19:29N 41°12' W 008°41'0 0.0
2018-Feb-22 18:59N 41°12' W 008°41'0 0.0
2018-Feb-22 18:29N 41°12' W 008°41'0 0.0
2018-Feb-22 17:59N 41°12' W 008°41'0 0.0
2018-Feb-22 17:29N 41°12' W 008°41'0 0.0
2018-Feb-22 16:59N 41°12' W 008°41'0 0.0
2018-Feb-22 16:29N 41°12' W 008°41'0 0.0
2018-Feb-22 15:56N 41°12' W 008°41'0 0.0
2018-Feb-22 15:29N 41°12' W 008°41'0 0.0
2018-Feb-22 14:56N 41°12' W 008°41'0 0.0
2018-Feb-22 14:29N 41°12' W 008°41'0 0.0
2018-Feb-22 13:41N 41°12' W 008°41'0 0.2
2018-Feb-22 13:15N 41°12' W 008°41'0 1.0
2018-Feb-22 13:01N 41°11' W 008°41'3 5.3
2018-Feb-22 12:30N 41°09' W 008°43'3 5.9
2018-Feb-22 11:59N 41°08' W 008°47'0 0.3
2018-Feb-22 11:29N 41°08' W 008°47'0 0.1
2018-Feb-22 10:59N 41°08' W 008°47'0 0.0
2018-Feb-22 10:29N 41°08' W 008°47'0 0.0
2018-Feb-22 09:59N 41°08' W 008°47'0 0.0
2018-Feb-22 09:29N 41°08' W 008°47'0 0.1
2018-Feb-22 08:59N 41°08' W 008°47'0 0.0
2018-Feb-22 08:29N 41°08' W 008°47'0 0.1
2018-Feb-22 07:59N 41°08' W 008°47'0 0.0
2018-Feb-22 07:29N 41°08' W 008°47'0 0.0
2018-Feb-22 06:59N 41°08' W 008°47'0 0.1
2018-Feb-22 06:29N 41°08' W 008°47'0 0.0
2018-Feb-22 05:59N 41°08' W 008°47'0 0.1
2018-Feb-22 05:29N 41°08' W 008°47'0 0.1
2018-Feb-22 04:59N 41°08' W 008°47'0 0.0
2018-Feb-22 04:29N 41°08' W 008°47'0 0.0
2018-Feb-22 03:59N 41°08' W 008°47'0 0.0
2018-Feb-22 03:29N 41°08' W 008°47'0 0.1
2018-Feb-22 02:58N 41°08' W 008°47'0 0.1
2018-Feb-22 02:28N 41°08' W 008°47'0 0.0
2018-Feb-22 01:58N 41°08' W 008°47'0 0.0
2018-Feb-22 01:28N 41°08' W 008°47'0 0.1
2018-Feb-22 00:58N 41°08' W 008°47'0 0.2
2018-Feb-22 00:28N 41°08' W 008°47'0 0.0
2018-Feb-21 23:58N 41°08' W 008°47'0 0.1
2018-Feb-21 23:28N 41°08' W 008°47'0 0.0
2018-Feb-21 22:58N 41°08' W 008°47'0 0.7
2018-Feb-21 22:31N 41°08' W 008°46'510.9
2018-Feb-21 22:01N 41°13' W 008°49'417 8.4
2018-Feb-19 20:33N 47°57' W 006°29'117.3
2018-Feb-19 20:30N 47°58' W 006°28'1316.7
2018-Feb-19 19:44N 48°10' W 006°19'616.2
2018-Feb-19 19:22N 48°15' W 006°15'615.8
2018-Feb-19 19:00N 48°20' W 006°11'1015.3
2018-Feb-19 18:21N 48°29' W 006°05'2314.7
2018-Feb-19 16:48N 48°49' W 005°49'1714.4
2018-Feb-19 15:38N 49°01' W 005°30'1015.2
2018-Feb-19 14:57N 49°06' W 005°16'815.9
2018-Feb-19 14:25N 49°10' W 005°05'716.6
2018-Feb-19 13:59N 49°14' W 004°55'2217.2
2018-Feb-19 12:44N 49°24' W 004°26'3716.5
2018-Feb-19 10:30N 49°42' W 003°37'815.0
2018-Feb-19 09:59N 49°46' W 003°26'714.5
2018-Feb-19 09:31N 49°49' W 003°17'814.2
2018-Feb-19 08:57N 49°53' W 003°06'614.0
2018-Feb-19 08:30N 49°56' W 002°58'713.9
2018-Feb-19 07:59N 49°58' W 002°47'714.4
2018-Feb-19 07:29N 50°01' W 002°37'1915.8
2018-Feb-19 06:18N 50°07' W 002°09'517.5
2018-Feb-19 06:00N 50°08' W 002°01'918.3
2018-Feb-19 05:30N 50°11' W 001°48'1019.0
2018-Feb-19 05:00N 50°14' W 001°34'1019.4
2018-Feb-19 04:30N 50°17' W 001°19'3419.2
2018-Feb-19 02:43N 50°26' W 000°27'418.0
2018-Feb-19 02:30N 50°27' W 000°21'917.3
2018-Feb-19 02:00N 50°30' W 000°08'816.7
2018-Feb-19 01:30N 50°32' E 000°04'816.1
2018-Feb-19 01:00N 50°34' E 000°17'815.5
2018-Feb-19 00:30N 50°37' E 000°28'715.0
2018-Feb-19 00:00N 50°40' E 000°39'714.9
2018-Feb-18 23:30N 50°44' E 000°48'815.3
2018-Feb-18 23:01N 50°49' E 000°58'816.3
2018-Feb-18 22:30N 50°54' E 001°08'817.2
2018-Feb-18 22:00N 50°60' E 001°18'1019.3
2018-Feb-18 21:30N 51°06' E 001°30'1019.6
2018-Feb-18 21:00N 51°12' E 001°42'918.6
2018-Feb-18 20:31N 51°19' E 001°51'917.6
2018-Feb-18 20:00N 51°27' E 001°59'816.8
2018-Feb-18 19:31N 51°33' E 002°08'816.4
2018-Feb-18 19:00N 51°39' E 002°17'815.9
2018-Feb-18 18:29N 51°45' E 002°26'3414.5
2018-Feb-18 16:11N 52°03' E 003°12'315.4
2018-Feb-18 16:00N 52°03' E 003°16'815.3
2018-Feb-18 15:30N 52°04' E 003°29'815.1
2018-Feb-18 15:00N 52°04' E 003°41'714.6
2018-Feb-18 14:31N 52°03' E 003°53'611.5
2018-Feb-18 14:00N 52°00' E 004°01'3 5.5
2018-Feb-18 13:30N 51°58' E 004°03'1 1.4
2018-Feb-18 12:58N 51°58' E 004°02'0 0.0
2018-Feb-18 12:28N 51°58' E 004°02'0 0.0
2018-Feb-18 11:58N 51°58' E 004°02'0 0.0
2018-Feb-18 11:28N 51°58' E 004°02'0 0.0
2018-Feb-18 10:58N 51°58' E 004°02'0 0.0
2018-Feb-18 10:28N 51°58' E 004°02'0 0.0
2018-Feb-18 09:58N 51°58' E 004°02'0 0.0
2018-Feb-18 09:30N 51°58' E 004°02'2 3.6
2018-Feb-18 09:00N 51°57' E 004°05'1 2.3
2018-Feb-18 08:30N 51°57' E 004°03'0 0.0
2018-Feb-18 07:58N 51°57' E 004°03'0 0.0
2018-Feb-18 07:28N 51°57' E 004°03'0 0.0
2018-Feb-18 06:58N 51°57' E 004°03'0 0.0
2018-Feb-18 06:28N 51°57' E 004°03'0 0.0
2018-Feb-18 05:58N 51°57' E 004°03'0 0.0
2018-Feb-18 05:28N 51°57' E 004°03'0 0.0
2018-Feb-18 04:58N 51°57' E 004°03'0 0.0
2018-Feb-18 04:28N 51°57' E 004°03'0 0.0
2018-Feb-18 03:58N 51°57' E 004°03'0 0.0
2018-Feb-18 03:28N 51°57' E 004°03'0 0.0
2018-Feb-18 03:00N 51°57' E 004°03'1 2.2
2018-Feb-18 02:30N 51°58' E 004°04'3 5.4
2018-Feb-18 02:00N 51°57' E 003°60'0 0.8
2018-Feb-18 01:30N 51°57' E 003°59'0 0.0
2018-Feb-18 01:00N 51°57' E 003°59'0 0.0
2018-Feb-18 00:30N 51°57' E 003°59'0 0.0
2018-Feb-18 00:00N 51°57' E 003°59'0 0.0
2018-Feb-17 23:30N 51°57' E 003°59'0 0.5
2018-Feb-17 23:01N 51°57' E 003°60'2 4.1
2018-Feb-17 22:30N 51°58' E 004°02'3 5.1
2018-Feb-17 22:00N 51°59' E 004°06'612.7
2018-Feb-17 21:30N 51°55' E 004°14'510.4
2018-Feb-17 21:00N 51°54' E 004°23'2 4.1
2018-Feb-17 20:31N 51°54' E 004°26'0 0.0
2018-Feb-17 20:00N 51°54' E 004°26'0 0.0
2018-Feb-17 19:27N 51°54' E 004°26'0 0.0
2018-Feb-17 18:59N 51°54' E 004°26'0 0.1
2018-Feb-17 18:29N 51°54' E 004°26'0 0.0
2018-Feb-17 17:59N 51°54' E 004°26'0 0.0
2018-Feb-17 17:30N 51°54' E 004°26'0 0.0
2018-Feb-17 16:59N 51°54' E 004°26'0 0.0
2018-Feb-17 16:30N 51°54' E 004°26'0 0.0
2018-Feb-17 16:00N 51°54' E 004°26'0 0.0
2018-Feb-17 15:27N 51°54' E 004°26'0 0.0
2018-Feb-17 15:00N 51°54' E 004°26'0 0.0
2018-Feb-17 14:29N 51°54' E 004°26'0 0.0
2018-Feb-17 13:59N 51°54' E 004°26'0 0.0
2018-Feb-17 13:27N 51°54' E 004°26'0 0.0
2018-Feb-17 13:00N 51°54' E 004°26'0 0.0
2018-Feb-17 12:30N 51°54' E 004°26'0 0.0
2018-Feb-17 11:59N 51°54' E 004°26'0 0.0
2018-Feb-17 11:26N 51°54' E 004°26'0 0.4
2018-Feb-17 10:59N 51°54' E 004°26'0 0.3
2018-Feb-17 10:28N 51°53' E 004°26'0 0.0
2018-Feb-17 09:59N 51°53' E 004°26'0 0.0
2018-Feb-17 09:29N 51°53' E 004°26'0 0.0
2018-Feb-17 08:58N 51°53' E 004°26'0 0.0
2018-Feb-17 08:30N 51°53' E 004°26'0 0.7
2018-Feb-17 08:00N 51°54' E 004°26'4 7.6
2018-Feb-17 07:30N 51°54' E 004°20'510.1
2018-Feb-17 07:00N 51°56' E 004°13'510.8
2018-Feb-17 06:30N 51°59' E 004°05'2 2.9
2018-Feb-17 06:00N 51°58' E 004°04'0 0.0
2018-Feb-17 05:30N 51°58' E 004°04'0 0.0
2018-Feb-17 05:00N 51°58' E 004°04'0 0.0
2018-Feb-17 04:30N 51°58' E 004°04'0 0.0
2018-Feb-17 04:00N 51°58' E 004°04'0 0.0
2018-Feb-17 03:30N 51°58' E 004°04'0 0.0
2018-Feb-17 02:59N 51°58' E 004°04'0 0.0
2018-Feb-17 02:29N 51°58' E 004°04'0 0.0
2018-Feb-17 01:59N 51°58' E 004°04'0 0.0
2018-Feb-17 01:30N 51°58' E 004°04'1 1.7
2018-Feb-17 01:00N 51°57' E 004°05'0 0.5
2018-Feb-17 00:29N 51°57' E 004°05'0 0.0
2018-Feb-16 23:59N 51°57' E 004°05'0 0.0
2018-Feb-16 23:29N 51°57' E 004°05'0 0.0
2018-Feb-16 22:59N 51°57' E 004°04'0 0.0
2018-Feb-16 22:29N 51°57' E 004°05'0 0.1
2018-Feb-16 21:59N 51°57' E 004°04'0 0.0
2018-Feb-16 21:29N 51°57' E 004°05'0 0.0
2018-Feb-16 20:59N 51°57' E 004°05'0 0.0
2018-Feb-16 20:29N 51°57' E 004°04'0 0.0
2018-Feb-16 19:56N 51°57' E 004°05'0 0.0
2018-Feb-16 19:29N 51°57' E 004°04'0 0.0
2018-Feb-16 18:59N 51°57' E 004°04'0 0.0
2018-Feb-16 18:29N 51°57' E 004°05'0 0.0
2018-Feb-16 17:59N 51°57' E 004°05'0 0.0
2018-Feb-16 17:29N 51°57' E 004°05'0 0.0
2018-Feb-16 16:59N 51°57' E 004°05'0 0.0
2018-Feb-16 16:30N 51°57' E 004°04'0 0.0
2018-Feb-16 15:59N 51°57' E 004°05'0 0.0
2018-Feb-16 15:30N 51°57' E 004°05'0 0.0
2018-Feb-16 14:57N 51°57' E 004°05'0 0.0
2018-Feb-16 14:30N 51°57' E 004°05'0 0.0
2018-Feb-16 14:00N 51°57' E 004°05'2 3.3
2018-Feb-16 13:31N 51°58' E 004°05'5 9.3
2018-Feb-16 13:00N 51°56' E 004°12'510.6
2018-Feb-16 12:30N 51°54' E 004°19'3 6.9
2018-Feb-16 12:00N 51°53' E 004°25'0 0.4
2018-Feb-16 11:27N 51°53' E 004°25'0 0.0
2018-Feb-16 11:00N 51°53' E 004°25'0 0.0
2018-Feb-16 10:30N 51°53' E 004°25'0 0.0
2018-Feb-16 10:00N 51°53' E 004°25'0 0.0
2018-Feb-16 09:30N 51°53' E 004°25'0 0.0
2018-Feb-16 08:57N 51°53' E 004°25'0 0.0
2018-Feb-16 08:27N 51°53' E 004°25'0 0.0
2018-Feb-16 07:59N 51°53' E 004°25'0 0.0
2018-Feb-16 07:30N 51°53' E 004°25'0 0.0
2018-Feb-16 07:00N 51°53' E 004°25'0 0.0
2018-Feb-16 06:29N 51°53' E 004°25'0 0.0
2018-Feb-16 06:00N 51°53' E 004°25'0 0.0
2018-Feb-16 05:30N 51°53' E 004°25'0 0.0
2018-Feb-16 04:59N 51°53' E 004°25'0 0.0
2018-Feb-16 04:30N 51°53' E 004°25'0 0.0
2018-Feb-16 04:00N 51°53' E 004°25'0 0.0
2018-Feb-16 03:30N 51°53' E 004°25'0 0.0
2018-Feb-16 03:00N 51°53' E 004°25'0 0.0
2018-Feb-16 02:30N 51°53' E 004°25'0 0.0
2018-Feb-16 02:00N 51°53' E 004°25'0 0.0
2018-Feb-16 01:29N 51°53' E 004°25'0 0.0
2018-Feb-16 00:57N 51°53' E 004°25'0 0.0
2018-Feb-16 00:29N 51°53' E 004°25'0 0.0
2018-Feb-16 00:00N 51°53' E 004°25'0 0.0
2018-Feb-15 23:29N 51°53' E 004°25'0 0.0
2018-Feb-15 22:59N 51°53' E 004°25'0 0.0
2018-Feb-15 22:30N 51°53' E 004°25'2 3.3
2018-Feb-15 22:00N 51°54' E 004°23'3 5.4
2018-Feb-15 21:30N 51°52' E 004°20'4 7.8
2018-Feb-15 21:00N 51°50' E 004°26'4 9.0
2018-Feb-15 20:30N 51°50' E 004°33'4 8.2
2018-Feb-15 20:01N 51°47' E 004°38'4 8.8
2018-Feb-15 19:31N 51°42' E 004°37'1 2.6
2018-Feb-15 19:00N 51°41' E 004°36'0 0.0
2018-Feb-15 18:24N 51°41' E 004°36'0 0.0
2018-Feb-15 18:00N 51°41' E 004°36'0 0.0
2018-Feb-15 17:30N 51°41' E 004°36'0 0.0
2018-Feb-15 17:00N 51°41' E 004°36'0 0.0
2018-Feb-15 16:27N 51°41' E 004°36'0 0.0
2018-Feb-15 15:54N 51°41' E 004°36'0 0.0
2018-Feb-15 15:30N 51°41' E 004°36'0 0.0
2018-Feb-15 15:00N 51°41' E 004°36'0 0.0
2018-Feb-15 14:30N 51°41' E 004°36'0 0.0
2018-Feb-15 13:57N 51°41' E 004°36'0 0.0
2018-Feb-15 13:30N 51°41' E 004°36'0 0.0
2018-Feb-15 13:00N 51°41' E 004°36'0 0.7
2018-Feb-15 12:30N 51°41' E 004°36'1 2.7
2018-Feb-15 12:00N 51°42' E 004°37'4 7.9
2018-Feb-15 11:30N 51°46' E 004°38'  

Dump ship's entire track history